Flight Track Log - Related Links

Times and Time Zones

All times are in EDT time to prevent confusion due to time zone crossing. See the ASA630 flight status page for this flight to view local times or setup timezone preferences in your user account.

Time Position Orientation Groundspeed Altitude Reporting Facility
EDT Latitude Longitude Course Direction KTS MPH feet Rate Location/Type
Fri 10:28:42 PM 47.4258 -122.3089 180° South 169 194 1,500  Level Seattle Center
Fri 10:29:26 PM 47.3972 -122.3089 180° South 176 203 2,400 1,714 Climbing Seattle Center
Fri 10:30:27 PM 47.3381 -122.3092 180° South 211 243 4,500 2,311 Climbing Seattle Center
Fri 10:31:28 PM 47.2647 -122.3100 180° South 261 300 7,100 2,557 Climbing Seattle Center
Fri 10:32:29 PM 47.1933 -122.2753 162° South 285 328 9,700 2,213 Climbing Seattle Center
Fri 10:33:30 PM 47.1058 -122.1856 145° Southeast 332 382 11,600 2,016 Climbing Seattle Center
Fri 10:34:31 PM 47.0119 -122.1447 163° South 357 411 13,800 2,331 Climbing Seattle Center
Fri 10:35:31 PM 46.9111 -122.1033 164° South 378 435 16,300 2,231 Climbing Seattle Center
Fri 10:36:32 PM 46.8072 -122.0581 163° South 392 451 18,300 2,016 Climbing Seattle Center
Fri 10:37:33 PM 46.6975 -122.0192 166° South 405 466 20,400 2,115 Climbing Seattle Center
Fri 10:38:34 PM 46.5867 -121.9642 161° South 420 483 22,600 1,918 Climbing Seattle Center
Fri 10:39:35 PM 46.4853 -121.8558 144° Southeast 449 517 24,300 1,574 Climbing Seattle Center
Fri 10:40:36 PM 46.3808 -121.7506 145° Southeast 458 527 25,800 1,488 Climbing Seattle Center
Fri 10:41:36 PM 46.2725 -121.6433 146° Southeast 473 544 27,300 1,388 Climbing Seattle Center
Fri 10:42:37 PM 46.1517 -121.5258 146° Southeast 473 544 28,600 1,279 Climbing Seattle Center
Fri 10:43:38 PM 46.0400 -121.4164 146° Southeast 479 551 29,900 1,377 Climbing Seattle Center
Fri 10:44:39 PM 45.9203 -121.3069 148° Southeast 499 574 31,400 1,377 Climbing Seattle Center
Fri 10:45:40 PM 45.8019 -121.2053 149° Southeast 498 573 32,700 1,190 Climbing Seattle Center
Fri 10:46:40 PM 45.6889 -121.1089 149° Southeast 479 551 33,800 1,140 Climbing Seattle Center
Fri 10:47:41 PM 45.5717 -121.0075 149° Southeast 488 562 35,000 1,131 Climbing Seattle Center
Fri 10:48:42 PM 45.4550 -120.9092 149° Southeast 488 562 36,100 984 Climbing Seattle Center
Fri 10:49:43 PM 45.3258 -120.7983 149° Southeast 488 562 37,000 443 Climbing Seattle Center
Fri 10:50:44 PM 45.2094 -120.6997 149° Southeast 488 562 37,000  Level Seattle Center
Fri 10:51:44 PM 45.0911 -120.6000 149° Southeast 492 566 37,000  Level Seattle Center
Fri 10:52:45 PM 44.9719 -120.5006 149° Southeast 494 568 37,000  Level Seattle Center
Fri 10:53:46 PM 44.8533 -120.4017 149° Southeast 493 567 37,000  Level Seattle Center
Fri 10:54:47 PM 44.7339 -120.3036 150° Southeast 494 568 37,000  Level Seattle Center
Fri 10:55:47 PM 44.6156 -120.2075 150° Southeast 490 564 37,000  Level Seattle Center
Fri 10:56:48 PM 44.4994 -120.1108 149° Southeast 484 557 37,000  Level Seattle Center
Fri 10:57:49 PM 44.3819 -120.0147 150° Southeast 486 559 37,000  Level Seattle Center
Fri 10:58:50 PM 44.2642 -119.9208 150° Southeast 486 559 37,000  Level Seattle Center
Fri 10:59:50 PM 44.1481 -119.8269 150° Southeast 483 556 37,000  Level Seattle Center
Fri 11:00:51 PM 44.0194 -119.7253 150° Southeast 485 558 37,000  Level Seattle Center
Fri 11:01:52 PM 43.9003 -119.6300 150° Southeast 480 552 37,000  Level Seattle Center
Fri 11:02:52 PM 43.7894 -119.5397 150° Southeast 482 555 37,000  Level Seattle Center
Fri 11:03:53 PM 43.6797 -119.4539 150° Southeast 477 549 37,000  Level Seattle Center
Fri 11:04:54 PM 43.5636 -119.3489 147° Southeast 475 547 37,000  Level Seattle Center
Fri 11:05:54 PM 43.4603 -119.2239 139° Southeast 487 560 37,000  Level Seattle Center
Fri 11:06:55 PM 43.3625 -119.1086 139° Southeast 485 558 37,000  Level Seattle Center
Fri 11:07:56 PM 43.2475 -118.9753 140° Southeast 485 558 37,000  Level Seattle Center
Fri 11:08:56 PM 43.1492 -118.8619 140° Southeast 485 558 37,000  Level Seattle Center
Fri 11:09:48 PM 43.0706 -118.7686 139° Southeast 479 551 37,000  Level Salt Lake Center
Fri 11:10:49 PM 42.9569 -118.6378 140° Southeast 479 551 37,000  Level Salt Lake Center
Fri 11:11:50 PM 42.8586 -118.5231 139° Southeast 485 558 37,000  Level Salt Lake Center
Fri 11:12:52 PM 42.7444 -118.3939 140° Southeast 481 554 37,000  Level Salt Lake Center
Fri 11:13:53 PM 42.6483 -118.2872 141° Southeast 470 541 37,000  Level Salt Lake Center
Fri 11:14:55 PM 42.5503 -118.1753 140° Southeast 478 550 37,000  Level Salt Lake Center
Fri 11:15:56 PM 42.4347 -118.0419 140° Southeast 485 558 37,000  Level Salt Lake Center
Fri 11:16:58 PM 42.3364 -117.9331 141° Southeast 481 554 37,000  Level Salt Lake Center
Fri 11:17:59 PM 42.2222 -117.8056 140° Southeast 477 549 37,000  Level Salt Lake Center
Fri 11:19:00 PM 42.1289 -117.7047 141° Southeast 469 540 37,000  Level Salt Lake Center
Fri 11:20:02 PM 42.0144 -117.5764 140° Southeast 475 547 37,000  Level Salt Lake Center
Fri 11:21:03 PM 41.9158 -117.4653 140° Southeast 482 555 37,000  Level Salt Lake Center
Fri 11:22:05 PM 41.8172 -117.3586 141° Southeast 477 549 37,000  Level Salt Lake Center
Fri 11:23:06 PM 41.7019 -117.2344 141° Southeast 477 549 37,000  Level Salt Lake Center
Fri 11:24:08 PM 41.6047 -117.1289 141° Southeast 471 542 37,000  Level Salt Lake Center
Fri 11:25:09 PM 41.4903 -117.0042 141° Southeast 473 544 37,000  Level Salt Lake Center
Fri 11:26:10 PM 41.3911 -116.8986 141° Southeast 474 545 37,000  Level Salt Lake Center
Fri 11:27:12 PM 41.2936 -116.7922 141° Southeast 472 543 37,000  Level Salt Lake Center
Fri 11:28:13 PM 41.1789 -116.6697 141° Southeast 471 542 37,000  Level Salt Lake Center
Fri 11:29:14 PM 41.0811 -116.5647 141° Southeast 470 541 37,000  Level Salt Lake Center
Fri 11:30:16 PM 40.9658 -116.4419 141° Southeast 472 543 37,000  Level Salt Lake Center
Fri 11:31:17 PM 40.8642 -116.3361 142° Southeast 479 551 37,000  Level Salt Lake Center
Fri 11:32:19 PM 40.7642 -116.2314 142° Southeast 476 548 37,000  Level Salt Lake Center
Fri 11:33:20 PM 40.6469 -116.1075 141° Southeast 479 551 37,000  Level Salt Lake Center
Fri 11:34:21 PM 40.5464 -116.0022 141° Southeast 479 551 37,000  Level Salt Lake Center
Fri 11:35:23 PM 40.4436 -115.8978 142° Southeast 482 555 37,000  Level Salt Lake Center
Fri 11:36:24 PM 40.3278 -115.7761 141° Southeast 477 549 37,000  Level Salt Lake Center
Fri 11:37:25 PM 40.2286 -115.6736 142° Southeast 475 547 37,000  Level Salt Lake Center
Fri 11:38:27 PM 40.1283 -115.5711 142° Southeast 475 547 37,000  Level Salt Lake Center
Fri 11:39:28 PM 40.0133 -115.4542 142° Southeast 470 541 37,000  Level Salt Lake Center
Fri 11:40:29 PM 39.9147 -115.3539 142° Southeast 469 540 37,000  Level Salt Lake Center
Fri 11:41:31 PM 39.8008 -115.2381 142° Southeast 465 535 37,000  Level Salt Lake Center
Fri 11:42:32 PM 39.7025 -115.1394 142° Southeast 465 535 37,000  Level Salt Lake Center
Fri 11:43:33 PM 39.6050 -115.0397 142° Southeast 464 534 37,000  Level Salt Lake Center
Fri 11:44:34 PM 39.4886 -114.9267 143° Southeast 468 539 37,000  Level Salt Lake Center
Fri 11:45:36 PM 39.3881 -114.8286 143° Southeast 471 542 37,000  Level Salt Lake Center
Fri 11:46:37 PM 39.2892 -114.7303 142° Southeast 469 540 37,000  Level Salt Lake Center
Fri 11:47:38 PM 39.1903 -114.6322 142° Southeast 467 537 37,000  Level Salt Lake Center
Fri 11:48:40 PM 39.0786 -114.5181 142° Southeast 467 537 37,000  Level Salt Lake Center
Fri 11:49:41 PM 38.9742 -114.4178 143° Southeast 468 539 37,000  Level Salt Lake Center
Fri 11:50:42 PM 38.8706 -114.3142 142° Southeast 471 542 37,000  Level Salt Lake Center
Fri 11:51:43 PM 38.7658 -114.2128 143° Southeast 472 543 37,000  Level Salt Lake Center
Fri 11:52:45 PM 38.6417 -114.0925 143° Southeast 468 539 37,000  Level Salt Lake Center
Fri 11:53:46 PM 38.5389 -113.9947 143° Southeast 464 534 37,000  Level Salt Lake Center
Fri 11:54:47 PM 38.4367 -113.8936 142° Southeast 465 535 37,000  Level Salt Lake Center
Fri 11:55:48 PM 38.3331 -113.7961 144° Southeast 464 534 37,000  Level Salt Lake Center
Fri 11:56:49 PM 38.2300 -113.6981 143° Southeast 464 534 37,000  Level Salt Lake Center
Fri 11:57:51 PM 38.1281 -113.6014 143° Southeast 460 529 37,000  Level Salt Lake Center
Fri 11:58:52 PM 38.0256 -113.5047 143° Southeast 460 529 37,000  Level Salt Lake Center
Fri 11:59:53 PM 37.9239 -113.4089 143° Southeast 459 528 37,000  Level Salt Lake Center
Sat 12:00:54 AM 37.8103 -113.3364 153° Southeast 458 527 37,000  Level Salt Lake Center
Sat 12:01:55 AM 37.6708 -113.2597 156° South 459 528 37,000  Level Salt Lake Center
Sat 12:02:56 AM 37.5547 -113.1956 156° South 462 532 37,000  Level Salt Lake Center
Sat 12:03:58 AM 37.4389 -113.1311 156° South 461 531 37,000  Level Salt Lake Center
Sat 12:04:59 AM 37.3217 -113.0669 156° South 465 535 37,000 -492 Level Salt Lake Center
Sat 12:06:00 AM 37.2036 -113.0028 157° South 466 536 36,000 -934 Descending Salt Lake Center
Sat 12:07:01 AM 37.0869 -112.9389 156° South 462 532 35,100 -1,026 Descending Salt Lake Center
Sat 12:07:16 AM 37.0408 -112.9125 155° Southeast 458 527 34,700 -1,091 Descending Los Angeles Center
Sat 12:08:18 AM 36.9208 -112.8464 156° South 468 539 33,700 -756 Descending Los Angeles Center
Sat 12:09:31 AM 36.8003 -112.7822 157° South 471 542 33,000 -311 Descending Los Angeles Center
Sat 12:10:33 AM 36.6578 -112.7056 157° South 468 539 33,000  Level Los Angeles Center
Sat 12:11:34 AM 36.5364 -112.6422 157° South 471 542 33,000  Level Los Angeles Center
Sat 12:12:36 AM 36.4147 -112.5789 157° South 473 544 33,000  Level Los Angeles Center
Sat 12:13:37 AM 36.2942 -112.5147 157° South 473 544 33,000 -293 Level Los Angeles Center
Sat 12:14:39 AM 36.1450 -112.4542 162° South 471 542 32,400 -732 Descending Los Angeles Center
Sat 12:15:40 AM 36.0100 -112.4614 182° South 480 552 31,500 -934 Descending Los Angeles Center
Sat 12:16:41 AM 35.8767 -112.4561 178° South 478 550 30,500 -976 Descending Los Angeles Center
Sat 12:17:43 AM 35.7467 -112.4514 178° South 470 541 29,500 -634 Descending Los Angeles Center
Sat 12:18:44 AM 35.6225 -112.4464 178° South 462 532 29,200 -244 Descending Los Angeles Center
Sat 12:19:46 AM 35.4942 -112.4436 179° South 460 529 29,000 -98 Descending Los Angeles Center
Sat 12:20:47 AM 35.3678 -112.4328 176° South 455 524 29,000  Level Los Angeles Center
Sat 12:21:06 AM 35.3181 -112.4208 169° South 454 522 29,000 -525 Level Albuquerque Center
Sat 12:22:07 AM 35.1931 -112.3925 170° South 455 524 28,300 -843 Descending Albuquerque Center
Sat 12:23:07 AM 35.0722 -112.3650 169° South 445 512 27,300 -992 Descending Albuquerque Center
Sat 12:24:08 AM 34.9519 -112.3372 169° South 441 507 26,300 -984 Descending Albuquerque Center
Sat 12:25:09 AM 34.8336 -112.3100 169° South 436 502 25,300 -984 Descending Albuquerque Center
Sat 12:26:10 AM 34.7222 -112.2842 169° South 428 493 24,300 -992 Descending Albuquerque Center
Sat 12:27:10 AM 34.6094 -112.2575 169° South 419 482 23,300 -1,041 Descending Albuquerque Center
Sat 12:28:11 AM 34.4986 -112.2322 169° South 411 473 22,200 -1,525 Descending Albuquerque Center
Sat 12:29:12 AM 34.3903 -112.2058 169° South 403 464 20,200 -2,164 Descending Albuquerque Center
Sat 12:30:13 AM 34.2675 -112.1783 170° South 383 441 17,800 -2,033 Descending Albuquerque Center
Sat 12:31:13 AM 34.1689 -112.1536 168° South 367 422 16,100 -1,091 Descending Albuquerque Center
Sat 12:32:14 AM 34.0789 -112.1347 170° South 331 381 15,600 -934 Descending Albuquerque Center
Sat 12:33:15 AM 33.9972 -112.1142 168° South 307 353 14,200 -1,426 Descending Albuquerque Center
Sat 12:34:16 AM 33.9131 -112.0917 167° South 312 359 12,700 -1,488 Descending Albuquerque Center
Sat 12:35:16 AM 33.8294 -112.0708 168° South 311 358 11,200 -1,339 Descending Albuquerque Center
Sat 12:36:17 AM 33.7447 -112.0503 169° South 304 350 10,000 -738 Descending Albuquerque Center
Sat 12:37:18 AM 33.6694 -112.0372 172° South 287 330 9,700 -443 Descending Albuquerque Center
Sat 12:38:19 AM 33.5958 -112.0247 172° South 271 312 9,100 -744 Descending Albuquerque Center
Sat 12:39:19 AM 33.5375 -111.9883 153° Southeast 240 276 8,200 -1,041 Descending Albuquerque Center
Sat 12:40:20 AM 33.5283 -111.9119 98° East 241 277 7,000 -1,033 Descending Albuquerque Center
Sat 12:41:21 AM 33.5250 -111.8178 92° East 237 273 6,100 -1,091 Descending Albuquerque Center
Sat 12:42:21 AM 33.4650 -111.8094 173° South 223 257 4,800 -1,240 Descending Albuquerque Center
Sat 12:43:22 AM 33.4442 -111.8622 245° Southwest 183 211 3,600 -1,180 Descending Albuquerque Center
Sat 12:44:23 AM 33.4408 -111.9119 265° West 153 176 2,400 -942 Descending Albuquerque Center
Sat 12:45:23 AM 33.4414 -111.9600 271° West 145 167 1,700 -645 Descending Albuquerque Center
Sat 12:46:24 AM 33.4394 -112.0111 267° West 149 171 1,100 -590 Descending Albuquerque Center

Login

Don't have an account? Register now (free) for customized features, flight alerts, and more!